D/T METAR WX W/SPE G/SPE TEMP DEWP FEEL
25/05/22 01:50 EGPL 250050Z AUTO 19017KT 9999 -RA SCT006/// BKN012/// 10/09 Q0997 -RA 19.6mph 10°C 9°C 10.8°C
25/05/22 01:20 EGPL 250020Z AUTO 20019KT 9999 -RA BKN010/// BKN043/// 10/08 Q0997 -RA 21.9mph 10°C 8°C 10.4°C
25/05/22 00:50 EGPL 242350Z AUTO 20020KT 9999 -RA SCT007/// BKN012/// BKN022/// 10/09 Q0998 RERA -RA 23.0mph 10°C 9°C 10.8°C
25/05/22 00:20 EGPL 242320Z AUTO 19017KT 9999 -RA BKN008/// BKN013/// BKN021/// 10/09 Q0998 -RA 19.6mph 10°C 9°C 10.8°C
24/05/22 23:50 EGPL 242250Z AUTO 18016KT 9999 -RA BKN011/// OVC046/// 11/09 Q0998 -RA 18.4mph 11°C 9°C 11.8°C
24/05/22 23:20 EGPL 242220Z AUTO 19015KT 9999 -RA SCT013/// BKN023/// BKN039/// 11/09 Q0999 -RA 17.3mph 11°C 9°C 11.8°C
24/05/22 22:50 EGPL 242150Z AUTO 19015KT 9999 -RA FEW014/// SCT022/// BKN041/// 11/08 Q0999 -RA 17.3mph 11°C 8°C 11.4°C
24/05/22 22:20 EGPL 242120Z AUTO 20014KT 9999 NCD 11/08 Q1000 16.1mph 11°C 8°C 11.4°C
24/05/22 21:50 EGPL 242050Z AUTO 20014KT 9999 NCD 11/07 Q1000 16.1mph 11°C 7°C 11.0°C
24/05/22 21:20 EGPL 242020Z AUTO 21015KT 9999 FEW018/// 11/08 Q1000 17.3mph 11°C 8°C 11.4°C
24/05/22 20:50 EGPL 241950Z AUTO 22013KT 9999 BKN017/// BKN041/// 11/08 Q1001 15.0mph 11°C 8°C 11.4°C
24/05/22 20:20 EGPL 241920Z AUTO 21013KT 9999 SCT019/// SCT035/// BKN048/// 11/08 Q1001 15.0mph 11°C 8°C 11.4°C
24/05/22 19:50 EGPL 241850Z AUTO 21013KT 9999 FEW018/// SCT033/// OVC040/// 11/08 Q1001 15.0mph 11°C 8°C 11.4°C
24/05/22 19:20 EGPL 241820Z AUTO 22015KT 3900 -RA FEW017/// BKN048/// 12/07 Q1001 -RA 17.3mph 12°C 7°C 12.0°C
24/05/22 18:50 EGPL 241750Z AUTO 23013KT 3800 -RA FEW021/// 12/07 Q1001 -RA 15.0mph 12°C 7°C 12.0°C
24/05/22 18:20 EGPL 241720Z AUTO 24012KT 4900 HZ FEW019/// SCT023/// 13/07 Q1001 HZ 13.8mph 13°C 7°C 13.0°C
24/05/22 17:50 EGPL 241650Z AUTO 25013KT 6000 SCT016/// SCT024/// BKN048/// 13/08 Q1001 15.0mph 13°C 8°C 13.4°C
24/05/22 17:20 EGPL 241620Z 25012KT 9999 FEW015 SCT020 13/08 Q1002 13.8mph 13°C 8°C 13.4°C
24/05/22 16:50 EGPL 241550Z 26012KT 9999 SCT018 13/08 Q1002 13.8mph 13°C 8°C 13.4°C
24/05/22 16:20 EGPL 241520Z 26012KT 9999 FEW017 13/08 Q1002 13.8mph 13°C 8°C 13.4°C
24/05/22 15:50 EGPL 241450Z 27012KT 9999 FEW018 13/08 Q1002 13.8mph 13°C 8°C 13.4°C
24/05/22 15:20 EGPL 241420Z 27012KT 9999 FEW014 SCT023 14/09 Q1002 13.8mph 14°C 9°C 14.8°C
24/05/22 14:50 EGPL 241350Z 27009KT 9999 FEW018 14/09 Q1002 10.4mph 14°C 9°C 14.8°C
24/05/22 14:20 EGPL 241320Z 27010KT 9999 FEW018 13/09 Q1002 11.5mph 13°C 9°C 13.8°C
24/05/22 13:50 EGPL 241250Z 27009KT 9999 FEW018 13/09 Q1002 10.4mph 13°C 9°C 13.8°C
24/05/22 13:20 EGPL 241220Z 28008KT 9999 FEW014 SCT020 13/09 Q1002 9.2mph 13°C 9°C 13.8°C
24/05/22 12:50 EGPL 241150Z 28007KT 250V310 9999 VCSH FEW016TCU SCT030 13/09 Q1002 VCSH 8.1mph 13°C 9°C 13.8°C
24/05/22 12:20 EGPL 241120Z 28006KT 250V320 9999 VCSH SCT012CB 13/09 Q1002 VCSH 6.9mph 13°C 9°C 13.8°C
24/05/22 11:50 EGPL 241050Z 27007KT 9999 VCSH FEW014 12/09 Q1002 VCSH 8.1mph 12°C 9°C 12.8°C
24/05/22 11:20 EGPL 241020Z 29006KT 9999 VCSH FEW014CB 12/09 Q1001 VCSH 6.9mph 12°C 9°C 12.8°C
24/05/22 10:50 EGPL 240950Z 29007KT 9999 VCSH SCT014 12/09 Q1001 VCSH 8.1mph 12°C 9°C 12.8°C
24/05/22 10:20 EGPL 240920Z 30007KT 9999 VCSH FEW016 12/09 Q1001 VCSH 8.1mph 12°C 9°C 12.8°C
24/05/22 09:50 EGPL 240850Z 30005KT 9999 VCSH SCT016 SCT049 12/09 Q1001 VCSH 5.8mph 12°C 9°C 12.8°C
24/05/22 09:20 EGPL 240820Z 30006KT 9999 VCSH SCT013TCU 11/09 Q1001 VCSH 6.9mph 11°C 9°C 11.8°C
24/05/22 08:20 EGPL 240720Z 29004KT 270V350 9999 FEW010TCU SCT043 12/09 Q1001 4.6mph 12°C 9°C 12.8°C
24/05/22 07:50 EGPL 240650Z 32003KT 9999 FEW010TCU SCT043 11/09 Q1001 3.5mph 11°C 9°C 11.8°C
24/05/22 07:20 EGPL 240620Z 30002KT 9999 FEW010 SCT043 11/09 Q1001 2.3mph 11°C 9°C 11.8°C
24/05/22 06:50 EGPL 240550Z AUTO VRB01KT 9999 NCD 10/09 Q1000 1.2mph 10°C 9°C 10.8°C
24/05/22 06:20 EGPL 240520Z AUTO 00000KT 9999 NCD 10/08 Q1000 10°C 8°C 10.4°C
24/05/22 05:50 EGPL 240450Z AUTO 21002KT 9999 FEW013/// BKN018/// BKN031/// 10/09 Q1000 2.3mph 10°C 9°C 10.8°C
24/05/22 05:20 EGPL 240420Z AUTO 16001KT 9999 SCT044/// 09/08 Q1000 1.2mph 9°C 8°C 9.4°C
24/05/22 04:50 EGPL 240350Z AUTO 13001KT 9999 FEW021/// BKN036/// OVC045/// 09/08 Q1000 RERA 1.2mph 9°C 8°C 9.4°C
24/05/22 04:20 EGPL 240320Z AUTO 13001KT 9999 -RA FEW016/// SCT021/// BKN029/// 09/08 Q1000 -RA 1.2mph 9°C 8°C 9.4°C
24/05/22 03:50 EGPL 240250Z AUTO VRB02KT 9999 SCT014/// BKN020/// 09/08 Q1000 2.3mph 9°C 8°C 9.4°C
24/05/22 03:20 EGPL 240220Z AUTO 02001KT 9999 NCD 09/07 Q1000 1.2mph 9°C 7°C 9.0°C
24/05/22 02:50 EGPL 240150Z AUTO 04001KT 9999 NCD 09/07 Q1000 1.2mph 9°C 7°C 9.0°C
24/05/22 02:20 EGPL 240120Z AUTO VRB01KT 9999 NCD 10/08 Q1000 1.2mph 10°C 8°C 10.4°C
24/05/22 01:50 EGPL 240050Z AUTO 24003KT 9999 FEW012/// SCT022/// BKN031/// 10/08 Q1000 RERA 3.5mph 10°C 8°C 10.4°C
24/05/22 01:20 EGPL 240020Z AUTO 28004KT 9999 FEW013/// SCT022/// 10/08 Q1000 4.6mph 10°C 8°C 10.4°C
24/05/22 00:50 EGPL 232350Z AUTO 28002KT 9999 BKN013/// 10/08 Q1000 2.3mph 10°C 8°C 10.4°C
23/05/22 23:50 EGPL 232250Z AUTO 27005KT 9999 FEW013/// SCT027/// 10/08 Q1000 5.8mph 10°C 8°C 10.4°C
23/05/22 23:20 EGPL 232220Z AUTO 26006KT 9999 FEW014/// SCT031/// 11/08 Q1000 6.9mph 11°C 8°C 11.4°C
23/05/22 22:50 EGPL 232150Z AUTO 27006KT 9999 NCD 11/08 Q1000 6.9mph 11°C 8°C 11.4°C
23/05/22 22:20 EGPL 232120Z AUTO 26007KT 9999 NCD 11/07 Q1000 8.1mph 11°C 7°C 11.0°C
23/05/22 21:50 EGPL 232050Z AUTO 27006KT 9999 NCD 11/08 Q1000 6.9mph 11°C 8°C 11.4°C
23/05/22 21:20 EGPL 232020Z AUTO 27007KT 9999 FEW016/// 11/08 Q1000 8.1mph 11°C 8°C 11.4°C
23/05/22 20:50 EGPL 231950Z AUTO 27006KT 9999 FEW015/// 11/08 Q1000 6.9mph 11°C 8°C 11.4°C
23/05/22 20:20 EGPL 231920Z AUTO 27006KT 9999 SCT015/// 11/08 Q1000 6.9mph 11°C 8°C 11.4°C
23/05/22 19:20 EGPL 231820Z AUTO 26007KT 9999 NCD 12/08 Q1000 8.1mph 12°C 8°C 12.4°C
23/05/22 18:50 EGPL 231750Z AUTO 26008KT 9999 NCD 12/08 Q0999 9.2mph 12°C 8°C 12.4°C
23/05/22 18:20 EGPL 231720Z AUTO 26008KT 9999 NCD 12/08 Q0999 9.2mph 12°C 8°C 12.4°C
23/05/22 17:50 EGPL 231650Z AUTO 26009KT 9999 NCD 12/08 Q0999 10.4mph 12°C 8°C 12.4°C
23/05/22 17:20 EGPL 231620Z 26010KT 9999 FEW015 12/07 Q0999 11.5mph 12°C 7°C 12.0°C
23/05/22 16:20 EGPL 231520Z 26010KT 9999 FEW015 13/08 Q1000 11.5mph 13°C 8°C 13.4°C
23/05/22 15:50 EGPL 231450Z 27010KT 9999 FEW015 12/08 Q1000 11.5mph 12°C 8°C 12.4°C
23/05/22 15:20 EGPL 231420Z 26009KT 9999 FEW018 13/08 Q1000 10.4mph 13°C 8°C 13.4°C
23/05/22 14:50 EGPL 231350Z 25010KT 9999 FEW018CB 13/08 Q1000 11.5mph 13°C 8°C 13.4°C
23/05/22 14:20 EGPL 231320Z 26010KT 9999 SCT017CB 12/08 Q1000 11.5mph 12°C 8°C 12.4°C
23/05/22 13:50 EGPL 231250Z 25009KT 9999 FEW015CB 12/08 Q1000 10.4mph 12°C 8°C 12.4°C
23/05/22 13:20 EGPL 231220Z 26009KT 9999 FEW015 13/08 Q1000 10.4mph 13°C 8°C 13.4°C
23/05/22 12:50 EGPL 231150Z 27008KT 9999 FEW015 13/09 Q1000 9.2mph 13°C 9°C 13.8°C
23/05/22 12:20 EGPL 231120Z 27009KT 9999 FEW022 12/08 Q1000 10.4mph 12°C 8°C 12.4°C
23/05/22 11:50 EGPL 231050Z 29006KT 9999 FEW020 12/07 Q1000 6.9mph 12°C 7°C 12.0°C
23/05/22 11:20 EGPL 231020Z 29007KT 9999 FEW020 12/07 Q1000 8.1mph 12°C 7°C 12.0°C
23/05/22 10:20 EGPL 230920Z 30006KT 9999 SCT018 12/08 Q1000 6.9mph 12°C 8°C 12.4°C
23/05/22 09:50 EGPL 230850Z 31007KT 9999 FEW014 SCT018 11/07 Q1000 8.1mph 11°C 7°C 11.0°C
23/05/22 09:20 EGPL 230820Z 31007KT 9999 FEW014 SCT018 11/08 Q1000 8.1mph 11°C 8°C 11.4°C
23/05/22 08:50 EGPL 230750Z 33005KT 9999 FEW014 SCT020 11/07 Q1000 5.8mph 11°C 7°C 11.0°C
23/05/22 08:20 EGPL 230720Z 33006KT 9999 FEW012 SCT028 11/08 Q1000 6.9mph 11°C 8°C 11.4°C
23/05/22 07:50 EGPL 230650Z 34007KT 9999 FEW010 SCT025 10/08 Q1000 8.1mph 10°C 8°C 10.4°C
23/05/22 07:20 EGPL 230620Z 34006KT 9999 VCSH FEW008 SCT020 BKN040 09/08 Q1000 VCSH 6.9mph 9°C 8°C 9.4°C
23/05/22 06:50 EGPL 230550Z AUTO 34008KT 9999 -RA BKN033/// BKN046/// 10/08 Q1000 -RA 9.2mph 10°C 8°C 10.4°C
23/05/22 06:20 EGPL 230520Z AUTO 32008KT 9999 -RA SCT033/// BKN047/// 10/08 Q1000 -RA 9.2mph 10°C 8°C 10.4°C
23/05/22 05:50 EGPL 230450Z AUTO 33008KT 9999 BKN045/// 10/08 Q1000 9.2mph 10°C 8°C 10.4°C
23/05/22 05:20 EGPL 230420Z AUTO 33008KT 9999 OVC037/// 10/08 Q1000 9.2mph 10°C 8°C 10.4°C
23/05/22 04:50 EGPL 230350Z AUTO 33007KT 9999 -RA FEW025/// SCT029/// BKN037/// 10/08 Q1000 -RA 8.1mph 10°C 8°C 10.4°C
23/05/22 04:20 EGPL 230320Z AUTO 33007KT 9999 OVC042/// 10/08 Q1000 8.1mph 10°C 8°C 10.4°C
23/05/22 03:50 EGPL 230250Z AUTO 34008KT 9999 -RA OVC038/// 10/09 Q1000 -RA 9.2mph 10°C 9°C 10.8°C
23/05/22 03:20 EGPL 230220Z AUTO 33008KT 9999 -RA FEW008/// OVC034/// 10/09 Q1000 -RA 9.2mph 10°C 9°C 10.8°C
23/05/22 02:50 EGPL 230150Z AUTO 34007KT 9999 SCT027/// BKN032/// OVC044/// 10/09 Q1000 8.1mph 10°C 9°C 10.8°C
23/05/22 02:20 EGPL 230120Z AUTO 35007KT 9999 -RA SCT006/// OVC022/// 10/09 Q1000 -RA 8.1mph 10°C 9°C 10.8°C
23/05/22 01:50 EGPL 230050Z AUTO 35010KT 9999 OVC019/// 10/09 Q1000 11.5mph 10°C 9°C 10.8°C
23/05/22 01:20 EGPL 230020Z AUTO 34011KT 9999 SCT020/// BKN026/// BKN035/// 10/09 Q1000 12.7mph 10°C 9°C 10.8°C
23/05/22 00:50 EGPL 222350Z AUTO 34010KT 9999 FEW006/// SCT021/// BKN028/// 10/09 Q1000 11.5mph 10°C 9°C 10.8°C
23/05/22 00:20 EGPL 222320Z AUTO 35010KT 8000 -RA FEW010/// BKN015/// BKN022/// 09/09 Q1000 -RA 11.5mph 9°C 9°C 9.8°C
22/05/22 23:50 EGPL 222250Z AUTO 35011KT 6000 -RA SCT005/// OVC009/// 10/09 Q1000 -RA 12.7mph 10°C 9°C 10.8°C